Time;durP1;ratioP1;P1;durP2;ratioP2;P2;SDS_P1;SDS_P2;PMS_P1;PMS_P2;Temp;Humidity;BMP_temperature;BMP_pressure;BME280_temperature;BME280_humidity;BME280_pressure;Samples;Min_cycle;Max_cycle;Signal;HPM_P1;HPM_P2
2023/02/08 00:01:13;;;;;;;8.07;2.90;;;;;;;-6.46;85.16;98177.53;5056964;28;20231;-68
2023/02/08 00:03:40;;;;;;;12.00;3.03;;;;;;;-6.55;85.19;98172.56;5055836;28;20211;-68
2023/02/08 00:06:08;;;;;;;4.37;2.53;;;;;;;-6.65;85.19;98164.25;5056421;28;20229;-68
2023/02/08 00:08:35;;;;;;;5.03;3.17;;;;;;;-6.64;86.27;98159.09;5056216;28;20211;-69
2023/02/08 00:11:01;;;;;;;20.33;2.00;;;;;;;-6.63;85.93;98149.69;5056630;28;20617;-68
2023/02/08 00:13:28;;;;;;;4.27;3.13;;;;;;;-6.64;84.53;98147.97;5055883;28;21171;-68
2023/02/08 00:15:55;;;;;;;5.17;4.20;;;;;;;-6.84;85.48;98148.34;5055938;28;20198;-69
2023/02/08 00:18:22;;;;;;;5.07;2.47;;;;;;;-6.66;86.12;98148.00;5059226;28;20210;-68
2023/02/08 00:20:49;;;;;;;11.47;2.47;;;;;;;-6.69;85.25;98142.94;5056025;28;20707;-68
2023/02/08 00:23:17;;;;;;;2.27;1.97;;;;;;;-6.68;86.54;98147.22;5056319;28;20209;-68
2023/02/08 00:25:43;;;;;;;5.47;3.17;;;;;;;-6.64;86.67;98148.84;5055869;28;20208;-68
2023/02/08 00:28:14;;;;;;;5.63;3.40;;;;;;;-6.73;86.87;98156.69;5056223;28;20222;-68
2023/02/08 00:30:41;;;;;;;3.73;2.53;;;;;;;-6.83;86.36;98150.03;5056004;28;20230;-68
2023/02/08 00:33:07;;;;;;;3.00;1.63;;;;;;;-6.78;86.49;98142.25;5056444;28;20294;-68
2023/02/08 00:35:34;;;;;;;3.40;2.87;;;;;;;-6.87;86.83;98137.28;5055687;28;20211;-68
2023/02/08 00:38:00;;;;;;;6.50;3.83;;;;;;;-6.79;86.89;98143.97;5055883;28;20207;-68
2023/02/08 00:40:28;;;;;;;2.13;1.93;;;;;;;-6.90;87.34;98133.06;5055896;28;21066;-68
2023/02/08 00:42:55;;;;;;;11.63;2.97;;;;;;;-6.97;87.14;98136.63;5056985;28;20585;-69
2023/02/08 00:45:22;;;;;;;1.93;1.73;;;;;;;-7.03;86.68;98136.72;5055512;28;20213;-68
2023/02/08 00:47:48;;;;;;;6.30;3.00;;;;;;;-7.28;88.76;98149.97;5055524;28;20226;-69
2023/02/08 00:50:15;;;;;;;5.53;3.47;;;;;;;-7.08;88.91;98135.94;5056468;28;20217;-69
2023/02/08 00:52:41;;;;;;;4.47;2.47;;;;;;;-6.93;88.34;98128.00;5056751;28;20210;-68
2023/02/08 00:55:08;;;;;;;6.40;2.77;;;;;;;-7.00;88.94;98136.69;5055202;28;20211;-68
2023/02/08 00:57:36;;;;;;;9.40;2.17;;;;;;;-7.04;89.98;98140.19;5056250;28;20202;-69
2023/02/08 01:00:03;;;;;;;5.07;2.37;;;;;;;-6.92;89.94;98141.69;5059965;28;20209;-69
2023/02/08 01:02:30;;;;;;;3.23;2.73;;;;;;;-6.83;88.74;98141.53;5059567;28;20293;-69
2023/02/08 01:04:56;;;;;;;8.87;3.57;;;;;;;-6.83;89.32;98139.78;5059272;28;20214;-68
2023/02/08 01:07:23;;;;;;;4.67;2.30;;;;;;;-6.75;88.48;98137.94;5059396;28;20232;-69
2023/02/08 01:09:49;;;;;;;2.93;2.00;;;;;;;-6.87;88.33;98142.41;5059354;28;20537;-69
2023/02/08 01:12:15;;;;;;;4.90;2.23;;;;;;;-6.75;89.53;98134.53;5060098;28;20214;-69
2023/02/08 01:14:43;;;;;;;2.67;2.47;;;;;;;-6.57;88.84;98141.00;5058812;28;20217;-69
2023/02/08 01:17:10;;;;;;;9.03;1.80;;;;;;;-6.63;87.58;98136.00;5059371;28;20210;-69
2023/02/08 01:19:36;;;;;;;3.40;2.23;;;;;;;-6.59;87.50;98136.78;5059442;28;20693;-69
2023/02/08 01:22:03;;;;;;;4.23;2.80;;;;;;;-6.73;88.86;98140.47;5059428;28;20226;-69
2023/02/08 01:24:29;;;;;;;7.13;2.97;;;;;;;-6.80;90.67;98144.84;5058581;28;20209;-69
2023/02/08 01:26:55;;;;;;;3.63;1.90;;;;;;;-6.76;88.76;98128.53;5059211;28;20570;-69
2023/02/08 01:29:22;;;;;;;6.43;3.50;;;;;;;-6.77;87.17;98133.69;5059193;28;20210;-69
2023/02/08 01:31:50;;;;;;;5.07;2.33;;;;;;;-6.60;87.31;98127.41;5059319;28;21224;-68
2023/02/08 01:34:16;;;;;;;9.17;2.53;;;;;;;-6.70;87.83;98131.00;5058457;28;20204;-69
2023/02/08 01:36:43;;;;;;;20.50;3.77;;;;;;;-6.70;88.12;98130.16;5059231;28;20208;-69
2023/02/08 01:39:11;;;;;;;7.57;3.10;;;;;;;-6.52;88.64;98126.38;5059035;28;20206;-68
2023/02/08 01:41:42;;;;;;;5.93;3.27;;;;;;;-6.52;87.39;98125.53;5058910;28;20226;-69
2023/02/08 01:44:47;;;;;;;3.00;2.47;;;;;;;-6.38;86.25;98128.66;5059010;28;20985;-69
2023/02/08 01:47:15;;;;;;;4.83;2.63;;;;;;;-6.54;87.78;98124.72;5058327;28;20719;-69
2023/02/08 01:49:42;;;;;;;6.20;2.60;;;;;;;-6.54;87.03;98127.28;5058905;28;20237;-69
2023/02/08 01:52:12;;;;;;;5.73;2.53;;;;;;;-6.61;86.53;98131.66;5058723;28;20223;-69
2023/02/08 01:54:43;;;;;;;2.80;2.13;;;;;;;-6.61;87.64;98130.84;5058892;28;20208;-69
2023/02/08 01:57:10;;;;;;;2.03;1.93;;;;;;;-6.72;86.75;98135.34;5058254;28;20211;-69
2023/02/08 01:59:40;;;;;;;3.70;1.97;;;;;;;-6.78;83.84;98132.88;5058470;28;20204;-69
2023/02/08 02:02:10;;;;;;;6.43;3.90;;;;;;;-6.82;85.21;98127.81;5059167;28;20224;-69
2023/02/08 02:04:38;;;;;;;5.77;3.43;;;;;;;-6.74;87.03;98121.69;5057840;28;20202;-68
2023/02/08 02:07:05;;;;;;;5.53;2.00;;;;;;;-6.94;84.96;98126.31;5058547;28;21164;-69
2023/02/08 02:09:39;;;;;;;7.23;2.07;;;;;;;-6.72;85.55;98122.53;5058213;28;20211;-68
2023/02/08 02:12:08;;;;;;;8.10;2.43;;;;;;;-6.76;86.79;98117.47;5058467;28;20235;-69
2023/02/08 02:14:35;;;;;;;5.87;3.80;;;;;;;-6.88;85.42;98115.97;5057350;28;20203;-69
2023/02/08 02:17:02;;;;;;;5.90;2.80;;;;;;;-6.99;84.55;98117.88;5058620;28;20214;-69
2023/02/08 02:19:45;;;;;;;8.43;3.60;;;;;;;-6.77;85.85;98116.63;5058837;28;20204;-68
2023/02/08 02:22:30;;;;;;;3.80;2.40;;;;;;;-6.80;85.91;98114.09;5058264;28;20226;-69
2023/02/08 02:25:22;;;;;;;4.33;3.00;;;;;;;-6.75;86.31;98111.47;5058092;28;20207;-68
2023/02/08 02:28:10;;;;;;;3.90;2.93;;;;;;;-6.83;85.56;98111.59;5058136;28;20227;-68
2023/02/08 02:31:12;;;;;;;4.67;3.03;;;;;;;-6.93;86.52;98107.50;5058369;28;20227;-69
2023/02/08 02:33:49;;;;;;;4.30;3.23;;;;;;;-7.02;88.14;98107.69;5057859;28;20202;-69
2023/02/08 02:36:24;;;;;;;5.00;2.93;;;;;;;-7.03;88.76;98111.09;5058479;28;20303;-69
2023/02/08 02:39:05;;;;;;;5.50;2.60;;;;;;;-6.97;87.70;98105.88;5058122;28;20700;-69
2023/02/08 02:44:35;;;;;;;4.83;3.10;;;;;;;-6.97;87.76;98116.13;5057268;28;20206;-69
2023/02/08 02:47:10;;;;;;;9.13;3.67;;;;;;;-6.99;88.07;98104.22;5057979;28;20219;-69
2023/02/08 02:49:46;;;;;;;6.00;2.27;;;;;;;-7.03;86.63;98103.44;5058200;28;20205;-69
2023/02/08 02:52:16;;;;;;;6.57;2.67;;;;;;;-7.14;86.85;98101.91;5058160;28;20226;-69
2023/02/08 02:54:49;;;;;;;4.87;2.10;;;;;;;-7.07;87.80;98100.97;5057573;28;20632;-68
2023/02/08 02:57:19;;;;;;;2.60;2.27;;;;;;;-7.10;89.69;98099.28;5058050;28;20213;-69
2023/02/08 02:59:46;;;;;;;3.33;2.37;;;;;;;-7.14;88.76;98096.81;5057344;28;21044;-68
2023/02/08 03:02:13;;;;;;;7.83;2.73;;;;;;;-7.20;87.55;98100.31;5057713;28;20223;-69
2023/02/08 03:04:55;;;;;;;6.00;3.23;;;;;;;-7.03;89.13;98103.44;5057537;28;20211;-69
2023/02/08 03:07:42;;;;;;;6.20;3.80;;;;;;;-7.04;90.06;98109.44;5057363;28;20235;-69
2023/02/08 03:10:22;;;;;;;6.77;3.83;;;;;;;-6.95;91.78;98099.03;5057679;28;20199;-68
2023/02/08 03:12:58;;;;;;;2.33;1.70;;;;;;;-6.97;91.93;98108.44;5058474;28;20213;-69
2023/02/08 03:15:34;;;;;;;3.37;2.93;;;;;;;-6.90;92.90;98097.19;5056462;28;20205;-68
2023/02/08 03:18:09;;;;;;;3.70;3.13;;;;;;;-6.76;93.71;98095.22;5057320;28;20213;-68
2023/02/08 03:20:41;;;;;;;4.67;4.20;;;;;;;-6.77;93.15;98096.13;5057589;28;20722;-68
2023/02/08 03:23:14;;;;;;;3.37;3.07;;;;;;;-6.74;92.75;98097.78;5057689;28;20207;-68
2023/02/08 03:25:51;;;;;;;2.53;2.03;;;;;;;-6.59;92.53;98099.16;5056729;28;20522;-69
2023/02/08 03:28:25;;;;;;;10.20;3.90;;;;;;;-6.55;92.01;98095.66;5055279;28;20219;-69
2023/02/08 03:30:58;;;;;;;6.20;3.63;;;;;;;-6.56;92.53;98098.25;5057071;28;20231;-69
2023/02/08 03:33:32;;;;;;;8.70;4.87;;;;;;;-6.43;92.77;98098.00;5057152;28;20213;-68
2023/02/08 03:36:04;;;;;;;5.60;2.90;;;;;;;-6.46;92.59;98095.47;5056974;28;20442;-69
2023/02/08 03:38:34;;;;;;;8.43;4.50;;;;;;;-6.41;92.18;98087.72;5057416;28;20593;-69
2023/02/08 03:41:04;;;;;;;5.70;3.87;;;;;;;-6.42;92.21;98091.16;5056928;28;20711;-69
2023/02/08 03:43:35;;;;;;;3.73;2.77;;;;;;;-6.42;92.83;98093.72;5056662;28;20209;-69
2023/02/08 03:46:09;;;;;;;4.30;2.83;;;;;;;-6.36;93.07;98088.47;5056345;28;20207;-69
2023/02/08 03:48:39;;;;;;;8.73;3.93;;;;;;;-6.46;93.13;98089.53;5056894;28;20275;-68
2023/02/08 03:51:08;;;;;;;11.03;4.20;;;;;;;-6.44;93.28;98090.31;5057156;28;20323;-68
2023/02/08 03:53:39;;;;;;;7.40;3.93;;;;;;;-6.48;92.84;98091.25;5056010;28;20198;-69
2023/02/08 03:56:10;;;;;;;6.63;4.00;;;;;;;-6.43;92.83;98089.44;5057182;28;20230;-69
2023/02/08 03:58:43;;;;;;;4.80;3.10;;;;;;;-6.41;93.15;98082.59;5056686;28;20252;-69
2023/02/08 04:01:16;;;;;;;8.10;3.97;;;;;;;-6.39;93.63;98075.69;5056889;28;20222;-69
2023/02/08 04:03:47;;;;;;;10.70;4.13;;;;;;;-6.36;94.40;98078.22;5056317;28;20223;-69
2023/02/08 04:06:15;;;;;;;10.23;3.63;;;;;;;-6.33;93.96;98070.44;5056812;28;20773;-69
2023/02/08 04:08:42;;;;;;;4.83;3.07;;;;;;;-6.43;91.74;98074.06;5057117;28;20231;-68
2023/02/08 04:11:08;;;;;;;8.27;3.60;;;;;;;-6.44;92.42;98074.94;5056009;28;20220;-69
2023/02/08 04:13:35;;;;;;;7.03;3.53;;;;;;;-6.43;91.16;98068.94;5055965;28;20682;-69
2023/02/08 04:16:01;;;;;;;8.50;3.47;;;;;;;-6.40;92.32;98074.00;5056247;28;20207;-68
2023/02/08 04:18:27;;;;;;;12.30;5.07;;;;;;;-6.31;91.86;98068.66;5057324;28;20207;-69
2023/02/08 04:20:54;;;;;;;12.53;4.13;;;;;;;-6.34;92.85;98068.75;5056689;28;20224;-69
2023/02/08 04:23:22;;;;;;;8.30;4.13;;;;;;;-6.32;92.01;98072.13;5056048;28;20200;-69
2023/02/08 04:25:48;;;;;;;7.57;2.97;;;;;;;-6.43;91.27;98066.38;5055841;28;20208;-69
2023/02/08 04:28:15;;;;;;;9.93;4.20;;;;;;;-6.36;91.57;98066.22;5056786;28;20234;-69
2023/02/08 04:30:41;;;;;;;8.27;4.33;;;;;;;-6.35;92.46;98064.47;5056570;28;20225;-69
2023/02/08 04:33:08;;;;;;;11.93;5.23;;;;;;;-6.40;92.67;98064.59;5056075;28;20198;-68
2023/02/08 04:35:34;;;;;;;6.17;3.77;;;;;;;-6.31;92.48;98061.84;5056049;28;20207;-68
2023/02/08 04:38:01;;;;;;;8.83;5.20;;;;;;;-6.29;91.29;98066.94;5056004;28;20204;-69
2023/02/08 04:40:29;;;;;;;8.47;4.27;;;;;;;-6.27;92.09;98068.59;5055901;28;20226;-68
2023/02/08 04:42:56;;;;;;;4.87;2.40;;;;;;;-6.50;91.96;98065.66;5056510;28;20615;-69
2023/02/08 04:45:22;;;;;;;7.03;3.00;;;;;;;-6.58;94.87;98054.72;5054752;28;20205;-69
2023/02/08 04:47:49;;;;;;;11.17;4.20;;;;;;;-6.38;94.04;98057.69;5056380;28;20230;-69
2023/02/08 04:50:15;;;;;;;7.37;4.60;;;;;;;-6.29;92.04;98059.22;5056472;28;20230;-69
2023/02/08 04:52:42;;;;;;;12.23;4.13;;;;;;;-6.31;93.15;98053.28;5056218;28;20581;-68
2023/02/08 04:55:08;;;;;;;8.87;4.83;;;;;;;-6.25;92.85;98048.03;5057789;28;20194;-69
2023/02/08 04:57:36;;;;;;;5.43;4.03;;;;;;;-6.22;92.43;98047.94;5056816;28;20226;-69
2023/02/08 05:00:04;;;;;;;6.77;3.50;;;;;;;-6.20;93.41;98048.78;5056357;28;20207;-69
2023/02/08 05:02:30;;;;;;;11.53;4.23;;;;;;;-6.35;92.42;98049.09;5056158;28;20580;-68
2023/02/08 05:04:57;;;;;;;5.73;3.63;;;;;;;-6.30;93.17;98045.59;5055571;28;20207;-69
2023/02/08 05:07:23;;;;;;;13.77;6.50;;;;;;;-6.33;92.12;98048.19;5055645;28;20230;-69
2023/02/08 05:09:50;;;;;;;10.07;4.33;;;;;;;-6.18;92.44;98044.47;5056157;28;20211;-69
2023/02/08 05:12:16;;;;;;;11.40;4.43;;;;;;;-6.26;91.73;98046.34;5055934;28;20211;-69
2023/02/08 05:14:44;;;;;;;10.20;4.80;;;;;;;-6.20;92.06;98044.47;5055280;28;20203;-69
2023/02/08 05:17:10;;;;;;;3.93;3.53;;;;;;;-6.33;91.68;98047.34;5055620;28;20203;-69
2023/02/08 05:19:37;;;;;;;5.57;3.50;;;;;;;-6.41;94.16;98051.81;5056413;28;20206;-68
2023/02/08 05:22:03;;;;;;;12.17;5.20;;;;;;;-6.32;93.27;98054.19;5055616;28;20229;-69
2023/02/08 05:24:30;;;;;;;9.63;3.80;;;;;;;-6.41;92.75;98052.66;5055132;28;20217;-69
2023/02/08 05:26:56;;;;;;;8.30;4.73;;;;;;;-6.30;92.20;98044.72;5055889;28;20219;-69
2023/02/08 05:29:23;;;;;;;4.87;3.97;;;;;;;-6.35;93.14;98055.09;5056692;28;20471;-69
2023/02/08 05:31:51;;;;;;;14.47;6.20;;;;;;;-6.43;93.03;98059.53;5056059;28;20821;-69
2023/02/08 05:34:17;;;;;;;7.53;4.30;;;;;;;-6.40;93.23;98056.03;5055032;28;20204;-68
2023/02/08 05:36:44;;;;;;;13.57;6.67;;;;;;;-6.43;93.30;98049.28;5055515;28;20204;-69
2023/02/08 05:39:10;;;;;;;7.50;5.13;;;;;;;-6.29;92.54;98056.66;5056083;28;20200;-68
2023/02/08 05:41:36;;;;;;;11.23;3.80;;;;;;;-6.28;92.59;98063.50;5055805;28;20225;-68
2023/02/08 05:44:03;;;;;;;8.83;4.67;;;;;;;-6.27;91.92;98060.88;5055233;28;20211;-68
2023/02/08 05:46:29;;;;;;;8.37;3.93;;;;;;;-6.29;92.93;98057.50;5058876;28;20208;-68
2023/02/08 05:48:57;;;;;;;9.47;5.70;;;;;;;-6.31;93.06;98059.28;5058990;28;20223;-68
2023/02/08 05:51:23;;;;;;;11.43;4.80;;;;;;;-6.33;92.72;98063.56;5059291;28;20223;-68
2023/02/08 05:53:50;;;;;;;13.47;6.33;;;;;;;-6.28;91.98;98060.94;5058687;28;20232;-68
2023/02/08 05:56:16;;;;;;;9.17;5.40;;;;;;;-6.23;91.80;98066.81;5059014;28;20561;-68
2023/02/08 05:58:43;;;;;;;3.40;2.97;;;;;;;-6.48;92.70;98066.47;5058683;28;20207;-68
2023/02/08 06:01:10;;;;;;;4.97;4.13;;;;;;;-6.35;93.00;98073.03;5059196;28;20219;-68
2023/02/08 06:03:36;;;;;;;15.33;4.30;;;;;;;-6.27;92.35;98067.75;5057976;28;20230;-68
2023/02/08 06:06:04;;;;;;;10.17;4.70;;;;;;;-6.28;92.01;98072.03;5058282;28;20214;-69
2023/02/08 06:08:31;;;;;;;9.60;4.30;;;;;;;-6.33;91.74;98078.13;5058842;28;20235;-68
2023/02/08 06:10:57;;;;;;;6.90;4.57;;;;;;;-6.36;91.47;98075.66;5059000;28;20227;-68
2023/02/08 06:13:24;;;;;;;7.23;4.50;;;;;;;-6.34;92.32;98071.31;5058564;28;20215;-68
2023/02/08 06:15:50;;;;;;;10.73;4.83;;;;;;;-6.32;92.48;98075.53;5058288;28;20581;-68
2023/02/08 06:18:17;;;;;;;11.50;6.97;;;;;;;-6.54;93.37;98081.16;5058297;28;20200;-68
2023/02/08 06:20:44;;;;;;;19.40;5.47;;;;;;;-6.45;93.00;98075.84;5058466;28;20314;-68
2023/02/08 06:23:11;;;;;;;15.67;4.07;;;;;;;-6.33;94.04;98073.00;5058917;28;20215;-68
2023/02/08 06:25:38;;;;;;;14.47;5.50;;;;;;;-6.39;93.52;98075.69;5057855;28;20200;-69
2023/02/08 06:28:05;;;;;;;8.23;4.40;;;;;;;-6.22;92.48;98076.16;5058463;28;20233;-68
2023/02/08 06:30:32;;;;;;;10.27;5.33;;;;;;;-6.48;91.50;98076.75;5058650;28;20223;-68
2023/02/08 06:32:58;;;;;;;10.80;5.17;;;;;;;-6.36;91.50;98075.66;5058538;28;20210;-68
2023/02/08 06:35:25;;;;;;;15.53;4.97;;;;;;;-6.34;90.95;98081.56;5057765;28;20259;-69
2023/02/08 06:37:51;;;;;;;5.57;3.93;;;;;;;-6.47;91.70;98082.69;5058625;28;20235;-69
2023/02/08 06:40:19;;;;;;;5.63;4.50;;;;;;;-6.21;90.67;98075.28;5058819;28;20219;-69
2023/02/08 06:42:46;;;;;;;7.50;4.50;;;;;;;-6.29;90.47;98077.19;5057759;28;20320;-69
2023/02/08 06:45:13;;;;;;;16.67;6.17;;;;;;;-6.31;89.90;98073.78;5057334;28;20208;-68
2023/02/08 06:47:39;;;;;;;5.43;3.73;;;;;;;-6.26;89.99;98071.97;5058335;28;20215;-68
2023/02/08 06:50:06;;;;;;;18.93;7.27;;;;;;;-6.22;89.82;98078.72;5057761;28;20254;-68
2023/02/08 06:52:32;;;;;;;13.57;4.97;;;;;;;-6.24;89.36;98077.94;5057972;28;20278;-68
2023/02/08 06:54:59;;;;;;;9.93;4.57;;;;;;;-6.22;89.22;98083.88;5057221;28;20936;-68
2023/02/08 06:57:27;;;;;;;7.20;4.57;;;;;;;-6.25;89.59;98082.25;5057579;28;20207;-69
2023/02/08 06:59:53;;;;;;;11.10;6.10;;;;;;;-6.25;89.10;98086.50;5057833;28;20196;-69
2023/02/08 07:02:21;;;;;;;7.87;4.40;;;;;;;-6.18;89.77;98085.50;5057898;28;20294;-68
2023/02/08 07:04:48;;;;;;;8.83;4.20;;;;;;;-6.18;90.30;98076.09;5056894;28;20208;-68
2023/02/08 07:07:16;;;;;;;8.73;5.43;;;;;;;-6.21;90.13;98072.72;5058023;28;20582;-68
2023/02/08 07:09:43;;;;;;;14.57;6.57;;;;;;;-6.18;89.73;98080.38;5057992;28;20237;-68
2023/02/08 07:12:09;;;;;;;13.80;6.17;;;;;;;-6.15;90.04;98083.69;5057466;28;20226;-68
2023/02/08 07:14:40;;;;;;;11.37;5.13;;;;;;;-6.09;90.06;98085.31;5056645;28;20211;-69
2023/02/08 07:17:07;;;;;;;15.90;6.33;;;;;;;-6.33;89.93;98085.81;5057513;28;20551;-69
2023/02/08 07:19:33;;;;;;;9.83;5.57;;;;;;;-6.25;90.51;98089.06;5057430;28;20199;-69
2023/02/08 07:22:03;;;;;;;9.03;5.67;;;;;;;-6.18;91.47;98085.50;5057739;28;20230;-69
2023/02/08 07:24:30;;;;;;;16.90;5.77;;;;;;;-6.06;91.12;98088.63;5056889;28;20233;-68
2023/02/08 07:26:56;;;;;;;6.30;3.53;;;;;;;-6.01;91.85;98085.13;5057503;28;20202;-69
2023/02/08 07:29:22;;;;;;;11.10;5.97;;;;;;;-6.05;91.84;98082.63;5057868;28;20237;-69
2023/02/08 07:31:50;;;;;;;9.60;5.27;;;;;;;-6.01;92.10;98082.56;5057283;28;20236;-69
2023/02/08 07:34:20;;;;;;;15.67;5.27;;;;;;;-5.81;91.64;98090.63;5056606;28;20206;-69
2023/02/08 07:36:47;;;;;;;12.83;4.60;;;;;;;-5.74;92.14;98089.59;5057425;28;20211;-69
2023/02/08 07:39:13;;;;;;;14.20;4.90;;;;;;;-5.76;91.92;98091.38;5057379;28;20200;-69
2023/02/08 07:41:40;;;;;;;15.70;6.67;;;;;;;-5.66;91.24;98085.13;5056631;28;20228;-68
2023/02/08 07:44:06;;;;;;;7.87;3.77;;;;;;;-5.46;91.07;98090.59;5056639;28;20203;-68
2023/02/08 07:46:33;;;;;;;9.37;5.67;;;;;;;-5.51;91.27;98097.59;5056969;28;20818;-68
2023/02/08 07:49:01;;;;;;;21.10;6.83;;;;;;;-5.53;91.82;98099.34;5056789;28;21208;-68
2023/02/08 07:51:27;;;;;;;12.20;5.40;;;;;;;-5.45;92.67;98102.56;5056683;28;20223;-68
2023/02/08 07:53:53;;;;;;;6.50;4.20;;;;;;;-5.43;92.54;98108.53;5056162;28;20210;-68
2023/02/08 07:56:20;;;;;;;10.27;5.37;;;;;;;-5.27;92.66;98103.00;5056635;28;20203;-68
2023/02/08 07:58:46;;;;;;;10.97;5.70;;;;;;;-5.12;91.82;98104.34;5056938;28;20203;-68
2023/02/08 08:01:13;;;;;;;14.43;6.70;;;;;;;-5.01;91.39;98094.63;5057179;28;20223;-68
2023/02/08 08:03:39;;;;;;;12.10;7.20;;;;;;;-4.83;90.63;98096.72;5055650;28;20211;-68
2023/02/08 08:06:07;;;;;;;13.50;5.10;;;;;;;-4.77;90.29;98102.56;5056584;28;20211;-68
2023/02/08 08:08:34;;;;;;;14.80;5.27;;;;;;;-4.68;90.10;98100.56;5055596;28;20238;-69
2023/02/08 08:11:00;;;;;;;13.00;5.50;;;;;;;-4.66;89.92;98100.53;5056661;28;20214;-68
2023/02/08 08:13:27;;;;;;;27.23;6.83;;;;;;;-4.57;89.50;98101.13;5055657;28;20208;-68
2023/02/08 08:15:53;;;;;;;11.77;6.47;;;;;;;-4.66;89.70;98098.81;5056035;28;20204;-68
2023/02/08 08:18:20;;;;;;;11.23;5.53;;;;;;;-4.61;89.65;98104.69;5056698;28;20200;-68
2023/02/08 08:20:46;;;;;;;13.00;6.70;;;;;;;-4.50;90.10;98099.25;5056356;28;20240;-68
2023/02/08 08:23:15;;;;;;;21.00;6.53;;;;;;;-4.26;89.15;98109.69;5056262;28;20204;-68
2023/02/08 08:25:41;;;;;;;13.70;6.93;;;;;;;-4.32;88.98;98096.97;5056500;28;21324;-68
2023/02/08 08:28:08;;;;;;;17.07;6.63;;;;;;;-4.27;89.87;98102.84;5056775;28;20208;-68
2023/02/08 08:30:35;;;;;;;23.23;6.87;;;;;;;-4.27;89.32;98097.69;5055873;28;20229;-68
2023/02/08 08:33:01;;;;;;;18.30;7.00;;;;;;;-4.10;88.19;98095.47;5057246;28;20214;-68
2023/02/08 08:35:27;;;;;;;10.97;5.87;;;;;;;-4.06;88.21;98094.50;5055858;28;20204;-69
2023/02/08 08:37:54;;;;;;;19.23;7.43;;;;;;;-3.84;87.48;98088.69;5055627;28;20211;-68
2023/02/08 08:40:22;;;;;;;21.20;6.30;;;;;;;-3.89;87.80;98085.41;5056167;28;20588;-69
2023/02/08 08:42:48;;;;;;;21.20;7.80;;;;;;;-3.82;87.94;98088.63;5057101;28;20213;-68
2023/02/08 08:45:15;;;;;;;16.47;7.13;;;;;;;-3.74;87.26;98094.38;5055141;28;20204;-68
2023/02/08 08:47:41;;;;;;;23.60;6.47;;;;;;;-3.69;86.86;98083.06;5056075;28;20204;-68
2023/02/08 08:50:08;;;;;;;21.73;8.47;;;;;;;-3.58;86.94;98076.69;5056588;28;20225;-68
2023/02/08 08:52:35;;;;;;;22.57;9.23;;;;;;;-3.53;87.45;98082.53;5055711;28;20204;-68
2023/02/08 08:55:01;;;;;;;30.93;8.47;;;;;;;-3.50;87.09;98082.44;5055596;28;20215;-68
2023/02/08 08:57:29;;;;;;;20.63;7.37;;;;;;;-3.39;87.73;98080.34;5056564;28;20216;-68
2023/02/08 08:59:56;;;;;;;7.37;4.23;;;;;;;-3.49;86.93;98080.69;5056125;28;20196;-68
2023/02/08 09:02:22;;;;;;;21.00;7.00;;;;;;;-3.38;86.64;98079.47;5055756;28;20212;-69
2023/02/08 09:04:49;;;;;;;12.70;6.83;;;;;;;-3.37;86.92;98073.44;5055785;28;20205;-68
2023/02/08 09:07:15;;;;;;;43.17;8.43;;;;;;;-3.43;86.41;98065.88;5056114;28;20221;-68
2023/02/08 09:09:46;;;;;;;15.33;6.50;;;;;;;-3.10;86.54;98069.13;5055720;28;20233;-68
2023/02/08 09:12:13;;;;;;;16.50;7.07;;;;;;;-3.21;86.58;98064.28;5056378;28;20311;-68
2023/02/08 09:14:41;;;;;;;23.57;8.10;;;;;;;-3.02;87.32;98063.66;5054940;28;20221;-68
2023/02/08 09:17:07;;;;;;;10.47;5.57;;;;;;;-3.10;86.19;98061.38;5055898;28;20209;-68
2023/02/08 09:19:34;;;;;;;12.80;6.53;;;;;;;-2.99;85.87;98068.69;5057897;28;20207;-68
2023/02/08 09:22:00;;;;;;;18.53;7.60;;;;;;;-2.98;87.06;98072.09;5060197;28;20228;-68
2023/02/08 09:24:27;;;;;;;18.57;6.03;;;;;;;-2.76;86.20;98070.47;5058969;28;20219;-68
2023/02/08 09:26:53;;;;;;;14.60;6.67;;;;;;;-2.57;86.13;98072.38;5059554;28;20205;-68
2023/02/08 09:29:20;;;;;;;21.73;8.67;;;;;;;-2.61;85.63;98064.78;5059451;28;20698;-68
2023/02/08 09:31:47;;;;;;;12.53;6.23;;;;;;;-2.41;85.00;98063.19;5059331;28;20226;-68
2023/02/08 09:34:14;;;;;;;16.10;6.00;;;;;;;-2.52;85.13;98064.47;5060302;28;20205;-70
2023/02/08 09:36:41;;;;;;;23.53;7.27;;;;;;;-2.31;85.25;98062.78;5060692;28;20301;-68
2023/02/08 09:39:10;;;;;;;14.73;7.57;;;;;;;-2.30;87.31;98064.47;5059071;28;20254;-68
2023/02/08 09:41:55;;;;;;;20.30;8.60;;;;;;;-1.99;85.67;98062.44;5058667;28;20240;-69
2023/02/08 09:44:32;;;;;;;14.53;6.80;;;;;;;-2.03;86.20;98062.63;5059364;28;20206;-69
2023/02/08 09:47:05;;;;;;;15.13;6.37;;;;;;;-1.94;87.37;98052.78;5059083;28;20211;-68
2023/02/08 09:49:40;;;;;;;17.67;5.93;;;;;;;-1.88;86.26;98044.81;5059026;28;20237;-68
2023/02/08 09:52:13;;;;;;;22.17;8.00;;;;;;;-1.87;86.41;98051.66;5059354;28;20230;-68
2023/02/08 09:54:43;;;;;;;25.40;9.17;;;;;;;-1.85;86.14;98047.25;5058951;28;20620;-69
2023/02/08 09:57:14;;;;;;;17.23;8.30;;;;;;;-1.78;86.24;98052.13;5059034;28;20211;-68
2023/02/08 09:59:51;;;;;;;24.73;8.23;;;;;;;-1.58;86.56;98043.59;5059213;28;20208;-68
2023/02/08 10:02:24;;;;;;;18.10;7.80;;;;;;;-1.72;87.84;98053.63;5059597;28;20211;-68
2023/02/08 10:04:57;;;;;;;18.40;8.33;;;;;;;-1.52;85.99;98051.94;5058241;28;20214;-68
2023/02/08 10:07:25;;;;;;;17.83;8.10;;;;;;;-1.52;86.83;98056.28;5058797;28;20211;-68
2023/02/08 10:09:52;;;;;;;24.30;7.20;;;;;;;-1.41;85.93;98046.34;5058985;28;20241;-69
2023/02/08 10:12:29;;;;;;;26.83;5.63;;;;;;;-1.50;84.91;98046.72;5058623;28;20671;-68
2023/02/08 10:15:05;;;;;;;28.00;10.97;;;;;;;-1.29;84.30;98048.47;5058266;28;20202;-68
2023/02/08 10:18:00;;;;;;;21.90;8.37;;;;;;;-1.15;83.75;98050.41;5058640;28;20201;-68
2023/02/08 10:20:42;;;;;;;14.87;8.67;;;;;;;-1.06;83.04;98050.06;5058639;28;20220;-68
2023/02/08 10:23:22;;;;;;;10.00;5.97;;;;;;;-1.07;81.93;98043.19;5058615;28;20215;-68
2023/02/08 10:26:13;;;;;;;20.50;8.07;;;;;;;-0.96;82.92;98040.97;5058234;28;20263;-68
2023/02/08 10:29:02;;;;;;;28.13;9.83;;;;;;;-0.95;82.81;98042.66;5058562;28;20211;-68
2023/02/08 10:31:44;;;;;;;9.63;6.20;;;;;;;-0.93;82.40;98033.09;5057005;28;20790;-69
2023/02/08 10:34:25;;;;;;;26.30;8.53;;;;;;;-0.91;83.32;98041.63;5057898;28;20584;-69
2023/02/08 10:36:52;;;;;;;34.53;9.90;;;;;;;-0.87;83.34;98035.41;5058654;28;20208;-69
2023/02/08 10:39:23;;;;;;;20.17;7.67;;;;;;;-0.95;82.23;98034.91;5058697;28;20212;-68
2023/02/08 10:41:51;;;;;;;15.30;7.57;;;;;;;-0.69;82.01;98021.69;5058261;28;20238;-69
2023/02/08 10:44:30;;;;;;;24.90;9.40;;;;;;;-0.52;81.81;98024.41;5057139;28;20211;-69
2023/02/08 10:47:08;;;;;;;27.13;10.40;;;;;;;-0.64;81.55;98016.34;5057490;28;20195;-68
2023/02/08 10:49:44;;;;;;;19.07;8.00;;;;;;;-0.57;81.92;98024.59;5057384;28;20235;-68
2023/02/08 10:52:11;;;;;;;24.87;7.17;;;;;;;-0.55;81.50;98019.34;5058220;28;20242;-69
2023/02/08 10:54:38;;;;;;;18.90;8.43;;;;;;;-0.54;82.38;98019.28;5057131;28;20747;-68
2023/02/08 10:57:13;;;;;;;17.27;6.77;;;;;;;-0.17;81.81;98013.31;5057787;28;20970;-69
2023/02/08 10:59:49;;;;;;;24.03;8.73;;;;;;;-0.19;81.27;98015.13;5057535;28;20692;-68
2023/02/08 11:02:22;;;;;;;21.33;8.90;;;;;;;0.04;79.94;98014.00;5056093;28;20625;-68
2023/02/08 11:05:01;;;;;;;27.13;8.17;;;;;;;-0.09;80.37;98012.03;5053843;28;20217;-69
2023/02/08 11:07:29;;;;;;;21.40;9.13;;;;;;;-0.19;80.33;98021.16;5055678;28;20207;-69
2023/02/08 11:10:14;;;;;;;19.73;7.13;;;;;;;-0.01;79.96;98015.13;5055794;28;20228;-68
2023/02/08 11:12:41;;;;;;;18.57;6.60;;;;;;;-0.05;79.10;98000.66;5056048;28;20247;-68
2023/02/08 11:15:22;;;;;;;24.40;7.43;;;;;;;-0.07;80.82;98004.22;5055304;28;20211;-68
2023/02/08 11:17:54;;;;;;;18.73;8.87;;;;;;;0.29;80.83;97996.38;5056526;28;20208;-68
2023/02/08 11:20:30;;;;;;;24.50;9.30;;;;;;;0.43;81.06;97991.38;5055861;28;20275;-69
2023/02/08 11:22:58;;;;;;;20.43;8.40;;;;;;;0.62;78.63;97986.97;5056445;28;20196;-69
2023/02/08 11:25:37;;;;;;;21.67;8.13;;;;;;;0.61;77.57;97993.06;5055138;28;20216;-69
2023/02/08 11:28:05;;;;;;;17.40;6.90;;;;;;;0.41;78.65;97982.84;5056237;28;20346;-69
2023/02/08 11:30:32;;;;;;;22.37;9.23;;;;;;;0.53;77.72;97984.84;5056266;28;20239;-69
2023/02/08 11:33:18;;;;;;;23.10;9.17;;;;;;;0.68;77.79;97976.31;5056169;28;20205;-69
2023/02/08 11:35:54;;;;;;;22.17;8.27;;;;;;;0.22;78.98;97974.25;5055760;28;20257;-69
2023/02/08 11:38:26;;;;;;;18.50;7.43;;;;;;;0.37;78.61;97976.13;5056567;28;20299;-69
2023/02/08 11:40:54;;;;;;;23.43;7.97;;;;;;;0.40;78.29;97970.78;5056336;28;20236;-69
2023/02/08 11:43:23;;;;;;;29.77;10.83;;;;;;;0.75;77.72;97960.38;5055771;28;21023;-69